createdAt,value
2017-11-21T00:00:30.498Z,2.33
2017-11-21T00:02:57.972Z,2.10
2017-11-21T00:05:25.445Z,2.30
2017-11-21T00:07:52.942Z,2.30
2017-11-21T00:10:21.194Z,2.47
2017-11-21T00:12:48.657Z,2.10
2017-11-21T00:15:16.200Z,2.50
2017-11-21T00:17:43.694Z,2.73
2017-11-21T00:20:11.174Z,2.00
2017-11-21T00:22:38.700Z,2.17
2017-11-21T00:25:06.926Z,2.27
2017-11-21T00:27:34.480Z,2.67
2017-11-21T00:30:02.774Z,2.33
2017-11-21T00:32:30.268Z,2.80
2017-11-21T00:34:58.535Z,2.20
2017-11-21T00:37:26.026Z,2.50
2017-11-21T00:39:53.506Z,2.47
2017-11-21T00:42:21.000Z,2.43
2017-11-21T00:44:48.496Z,2.67
2017-11-21T00:47:15.999Z,2.37
2017-11-21T00:49:43.477Z,2.37
2017-11-21T00:52:11.752Z,2.20
2017-11-21T00:54:39.259Z,1.80
2017-11-21T00:57:07.588Z,2.20
2017-11-21T00:59:35.062Z,2.00
2017-11-21T01:02:02.544Z,2.20
2017-11-21T01:04:30.019Z,1.80
2017-11-21T01:06:57.543Z,2.20
2017-11-21T01:09:25.018Z,2.70
2017-11-21T01:11:52.478Z,2.07
2017-11-21T01:14:19.973Z,1.97
2017-11-21T01:16:47.436Z,2.80
2017-11-21T01:19:15.007Z,1.90
2017-11-21T01:21:43.291Z,2.57
2017-11-21T01:24:10.753Z,2.13
2017-11-21T01:26:38.225Z,2.00
2017-11-21T01:29:05.729Z,2.27
2017-11-21T01:31:33.214Z,2.27
2017-11-21T01:34:00.692Z,2.20
2017-11-21T01:36:28.969Z,2.63
2017-11-21T01:38:56.442Z,2.40
2017-11-21T01:41:23.945Z,2.50
2017-11-21T01:43:51.477Z,2.37
2017-11-21T01:46:19.727Z,3.10
2017-11-21T01:48:47.190Z,2.53
2017-11-21T01:51:14.728Z,2.33
2017-11-21T01:53:42.202Z,2.60
2017-11-21T01:56:09.699Z,2.90
2017-11-21T01:58:37.235Z,3.60
2017-11-21T02:01:04.708Z,3.20
2017-11-21T02:03:32.283Z,2.80
2017-11-21T02:05:59.759Z,3.57
2017-11-21T02:08:27.241Z,3.30
2017-11-21T02:10:54.728Z,2.73
2017-11-21T02:13:22.235Z,3.10
2017-11-21T02:15:50.599Z,2.97
2017-11-21T02:18:18.842Z,2.33
2017-11-21T02:20:46.346Z,2.80
2017-11-21T02:23:13.841Z,2.90
2017-11-21T02:25:41.410Z,3.30
2017-11-21T02:28:08.887Z,2.83
2017-11-21T02:30:36.420Z,2.40
2017-11-21T02:33:03.896Z,3.37
2017-11-21T02:35:32.177Z,3.23
2017-11-21T02:37:59.682Z,2.20
2017-11-21T02:40:27.923Z,2.70
2017-11-21T02:42:55.410Z,2.47
2017-11-21T02:45:22.953Z,2.83
2017-11-21T02:47:51.212Z,2.87
2017-11-21T02:50:18.740Z,2.60
2017-11-21T02:52:46.216Z,2.47
2017-11-21T02:55:14.444Z,2.97
2017-11-21T02:57:41.934Z,2.53
2017-11-21T03:00:09.401Z,2.40
2017-11-21T03:02:36.887Z,2.23
2017-11-21T03:05:04.365Z,2.70
2017-11-21T03:07:31.850Z,1.93
2017-11-21T03:09:59.319Z,1.93
2017-11-21T03:12:26.814Z,2.20
2017-11-21T03:14:54.297Z,2.00
2017-11-21T03:17:21.782Z,1.80
2017-11-21T03:19:49.276Z,2.10
2017-11-21T03:22:28.549Z,2.00
2017-11-21T03:25:07.864Z,2.23
2017-11-21T03:27:35.400Z,1.93
2017-11-21T03:30:02.862Z,2.00
2017-11-21T03:32:30.332Z,1.83
2017-11-21T03:34:57.867Z,2.10
2017-11-21T03:37:25.337Z,1.90
2017-11-21T03:39:52.824Z,1.90
2017-11-21T03:42:20.294Z,1.80
2017-11-21T03:44:47.800Z,1.57
2017-11-21T03:47:15.320Z,1.70
2017-11-21T03:49:42.809Z,1.50
2017-11-21T03:52:10.292Z,1.33
2017-11-21T03:54:37.770Z,1.60
2017-11-21T03:57:05.239Z,1.67
2017-11-21T03:59:33.551Z,1.57
2017-11-21T04:02:01.034Z,1.97
2017-11-21T04:04:28.528Z,1.47
2017-11-21T04:06:56.006Z,1.60
2017-11-21T04:09:23.528Z,1.57
2017-11-21T04:11:51.075Z,1.83
2017-11-21T04:14:18.549Z,1.53
2017-11-21T04:16:46.037Z,1.00
2017-11-21T04:19:13.512Z,1.20
2017-11-21T04:21:41.779Z,1.60
2017-11-21T04:24:09.260Z,1.40
2017-11-21T04:26:36.746Z,1.20
2017-11-21T04:29:04.241Z,1.30
2017-11-21T04:31:31.705Z,1.60
2017-11-21T04:33:59.186Z,1.10
2017-11-21T04:36:26.658Z,1.37
2017-11-21T04:38:54.199Z,1.60
2017-11-21T04:41:21.728Z,1.70
2017-11-21T04:43:49.198Z,1.53
2017-11-21T04:46:16.678Z,1.33
2017-11-21T04:48:44.152Z,1.70
2017-11-21T04:51:11.633Z,1.37
2017-11-21T04:53:39.147Z,1.43
2017-11-21T04:56:06.655Z,1.83
2017-11-21T04:58:34.147Z,1.20
2017-11-21T05:01:02.391Z,1.40
2017-11-21T05:03:29.874Z,1.33
2017-11-21T05:05:57.346Z,1.97
2017-11-21T05:08:24.821Z,1.30
2017-11-21T05:10:52.373Z,2.10
2017-11-21T05:13:20.622Z,1.60
2017-11-21T05:15:48.166Z,2.17
2017-11-21T05:18:16.404Z,1.90
2017-11-21T05:20:43.899Z,1.80
2017-11-21T05:23:11.407Z,2.00
2017-11-21T05:25:38.921Z,1.60
2017-11-21T05:28:07.180Z,1.67
2017-11-21T05:30:34.663Z,2.70
2017-11-21T05:33:13.986Z,1.80
2017-11-21T05:35:41.466Z,1.80
2017-11-21T05:38:09.031Z,3.10
2017-11-21T05:40:37.301Z,2.20
2017-11-21T05:43:05.600Z,2.17
2017-11-21T05:45:33.091Z,2.30
2017-11-21T05:48:00.563Z,1.90
2017-11-21T05:50:28.048Z,2.07
2017-11-21T05:52:55.561Z,2.10
2017-11-21T05:55:23.807Z,1.97
2017-11-21T05:57:51.297Z,2.37
2017-11-21T06:00:18.780Z,2.27
2017-11-21T06:02:46.356Z,2.70
2017-11-21T06:05:13.906Z,1.70
2017-11-21T06:07:41.391Z,2.90
2017-11-21T06:10:08.874Z,1.90
2017-11-21T06:12:36.391Z,2.03
2017-11-21T06:15:03.875Z,2.70
2017-11-21T06:17:31.443Z,2.50
2017-11-21T06:19:58.985Z,2.90
2017-11-21T06:22:26.457Z,2.40
2017-11-21T06:24:53.970Z,2.23
2017-11-21T06:27:22.233Z,2.13
2017-11-21T06:29:49.762Z,2.37
2017-11-21T06:32:17.241Z,2.77
2017-11-21T06:34:44.741Z,2.30
2017-11-21T06:37:12.217Z,2.33
2017-11-21T06:39:39.761Z,5.60
2017-11-21T06:42:07.262Z,2.47
2017-11-21T06:44:34.730Z,2.37
2017-11-21T06:47:02.221Z,1.90
2017-11-21T06:49:29.822Z,2.03
2017-11-21T06:51:58.079Z,2.23
2017-11-21T06:54:25.581Z,2.20
2017-11-21T06:56:53.057Z,1.80
2017-11-21T06:59:20.573Z,2.20
2017-11-21T07:01:48.080Z,2.50
2017-11-21T07:04:15.577Z,2.33
2017-11-21T07:06:43.071Z,2.20
2017-11-21T07:09:10.577Z,2.43
2017-11-21T07:11:38.062Z,2.13
2017-11-21T07:14:05.550Z,1.93
2017-11-21T07:16:33.033Z,2.40
2017-11-21T07:19:00.509Z,2.23
2017-11-21T07:21:28.000Z,2.53
2017-11-21T07:23:55.594Z,2.13
2017-11-21T07:26:23.230Z,2.17
2017-11-21T07:28:50.870Z,2.33
2017-11-21T07:31:19.158Z,2.80
2017-11-21T07:33:47.424Z,1.90
2017-11-21T07:36:14.929Z,2.10
2017-11-21T07:38:42.416Z,2.40
2017-11-21T07:41:09.911Z,1.90
2017-11-21T07:43:37.409Z,3.30
2017-11-21T07:46:06.589Z,2.87
2017-11-21T07:48:34.225Z,2.10
2017-11-21T07:51:01.766Z,2.30
2017-11-21T07:53:29.294Z,2.30
2017-11-21T07:55:56.794Z,2.00
2017-11-21T07:58:24.299Z,2.33
2017-11-21T08:00:51.838Z,1.80
2017-11-21T08:03:20.080Z,1.73
2017-11-21T08:05:47.573Z,1.73
2017-11-21T08:08:15.088Z,1.87
2017-11-21T08:10:42.747Z,2.20
2017-11-21T08:13:10.321Z,1.60
2017-11-21T08:15:37.995Z,1.70
2017-11-21T08:18:05.528Z,1.90
2017-11-21T08:20:33.015Z,1.40
2017-11-21T08:23:00.516Z,2.00
2017-11-21T08:25:28.762Z,1.90
2017-11-21T08:27:56.245Z,2.40
2017-11-21T08:30:23.723Z,1.70
2017-11-21T08:32:51.236Z,1.70
2017-11-21T08:35:18.729Z,1.90
2017-11-21T08:37:46.309Z,1.47
2017-11-21T08:40:13.956Z,2.20
2017-11-21T08:42:41.421Z,1.20
2017-11-21T08:45:09.675Z,1.50
2017-11-21T08:47:37.154Z,2.47
2017-11-21T08:50:04.642Z,3.80
2017-11-21T08:52:32.162Z,2.27
2017-11-21T08:54:59.698Z,1.37
2017-11-21T08:57:27.180Z,1.80
2017-11-21T09:02:33.474Z,1.60
2017-11-21T09:05:00.973Z,2.20
2017-11-21T09:07:28.526Z,2.50
2017-11-21T09:09:56.093Z,2.30
2017-11-21T09:12:23.720Z,2.30
2017-11-21T09:14:51.217Z,1.60
2017-11-21T09:17:19.498Z,2.77
2017-11-21T09:19:53.823Z,1.93
2017-11-21T09:22:21.309Z,1.80
2017-11-21T09:24:48.865Z,1.80
2017-11-21T09:27:16.358Z,1.70
2017-11-21T09:29:44.607Z,1.53
2017-11-21T09:32:12.107Z,1.40
2017-11-21T09:34:39.574Z,1.77
2017-11-21T09:37:07.165Z,1.57
2017-11-21T09:39:34.633Z,1.53
2017-11-21T09:42:02.105Z,1.40
2017-11-21T09:44:29.618Z,1.53
2017-11-21T09:46:57.123Z,1.40
2017-11-21T09:49:24.610Z,1.40
2017-11-21T09:51:52.098Z,1.80
2017-11-21T09:54:20.476Z,1.50
2017-11-21T09:56:48.893Z,1.90
2017-11-21T09:59:16.376Z,1.63
2017-11-21T10:01:43.874Z,1.60
2017-11-21T10:04:11.375Z,1.80
2017-11-21T10:06:38.893Z,1.77
2017-11-21T10:09:06.361Z,1.57
2017-11-21T10:11:33.858Z,2.00
2017-11-21T10:14:01.361Z,1.50
2017-11-21T10:16:29.610Z,2.43
2017-11-21T10:18:57.158Z,1.90
2017-11-21T10:21:24.662Z,2.47
2017-11-21T10:23:52.140Z,2.07
2017-11-21T10:26:19.647Z,2.07
2017-11-21T10:28:47.149Z,2.00
2017-11-21T10:31:14.651Z,2.33
2017-11-21T10:33:42.161Z,1.80
2017-11-21T10:36:09.660Z,2.23
2017-11-21T10:38:37.198Z,2.47
2017-11-21T10:41:04.679Z,1.70
2017-11-21T10:43:32.191Z,1.90
2017-11-21T10:45:59.683Z,2.13
2017-11-21T10:48:27.982Z,1.77
2017-11-21T10:50:56.255Z,4.30
2017-11-21T10:53:23.813Z,1.87
2017-11-21T10:55:51.351Z,2.13
2017-11-21T10:58:18.901Z,2.50
2017-11-21T11:00:46.389Z,2.60
2017-11-21T11:03:13.993Z,1.80
2017-11-21T11:05:41.529Z,1.63
2017-11-21T11:08:09.903Z,1.90
2017-11-21T11:10:37.505Z,1.37
2017-11-21T11:13:11.809Z,1.40
2017-11-21T11:15:39.378Z,1.37
2017-11-21T11:18:06.895Z,1.70
2017-11-21T11:20:34.377Z,1.97
2017-11-21T11:23:01.862Z,1.70
2017-11-21T11:25:29.417Z,1.43
2017-11-21T11:27:56.936Z,1.40
2017-11-21T11:30:24.418Z,1.80
2017-11-21T11:32:51.950Z,2.50
2017-11-21T11:35:19.456Z,1.70
2017-11-21T11:37:46.942Z,2.67
2017-11-21T11:40:15.203Z,1.60
2017-11-21T11:42:42.769Z,1.53
2017-11-21T11:45:10.247Z,2.00
2017-11-21T11:47:37.751Z,1.63
2017-11-21T11:50:05.254Z,2.10
2017-11-21T11:52:32.889Z,1.55
2017-11-21T11:55:01.143Z,1.80
2017-11-21T11:57:28.633Z,1.50
2017-11-21T11:59:56.147Z,1.57
2017-11-21T12:02:24.652Z,2.13
2017-11-21T12:04:52.911Z,1.30
2017-11-21T12:07:20.588Z,1.60
2017-11-21T12:09:48.088Z,1.83
2017-11-21T12:12:15.675Z,1.47
2017-11-21T12:14:43.163Z,1.90
2017-11-21T12:17:10.732Z,1.73
2017-11-21T12:19:38.204Z,1.53
2017-11-21T12:22:05.695Z,1.77
2017-11-21T12:24:33.187Z,1.60
2017-11-21T12:27:00.822Z,1.50
2017-11-21T12:29:28.407Z,1.77
2017-11-21T12:31:56.840Z,1.93
2017-11-21T12:34:24.395Z,2.07
2017-11-21T12:36:51.904Z,1.43
2017-11-21T12:39:20.154Z,1.87
2017-11-21T12:41:47.663Z,1.93
2017-11-21T12:44:15.203Z,2.53
2017-11-21T12:46:42.698Z,2.03
2017-11-21T12:49:10.185Z,2.07
2017-11-21T12:51:37.675Z,2.20
2017-11-21T12:54:05.210Z,2.20
2017-11-21T12:56:32.712Z,1.53
2017-11-21T12:59:00.222Z,1.93
2017-11-21T13:01:27.715Z,2.30
2017-11-21T13:03:55.251Z,2.60
2017-11-21T13:06:22.880Z,2.13
2017-11-21T13:08:50.448Z,3.00
2017-11-21T13:11:18.721Z,2.00
2017-11-21T13:13:46.221Z,2.80
2017-11-21T13:16:13.726Z,1.73
2017-11-21T13:18:41.221Z,1.67
2017-11-21T13:21:08.724Z,3.03
2017-11-21T13:23:36.217Z,2.70
2017-11-21T13:26:03.709Z,1.93
2017-11-21T13:28:31.197Z,2.37
2017-11-21T13:30:58.682Z,2.50
2017-11-21T13:33:26.199Z,2.60
2017-11-21T13:35:53.702Z,1.57
2017-11-21T13:38:21.281Z,2.30
2017-11-21T13:40:48.756Z,2.10
2017-11-21T13:43:16.259Z,2.00
2017-11-21T13:45:43.774Z,2.13
2017-11-21T13:48:11.285Z,2.30
2017-11-21T13:50:38.760Z,1.90
2017-11-21T13:53:06.282Z,1.73
2017-11-21T13:55:34.079Z,2.50
2017-11-21T13:58:01.607Z,1.67
2017-11-21T14:00:29.128Z,2.00
2017-11-21T14:02:56.621Z,2.23
2017-11-21T14:05:24.881Z,1.90
2017-11-21T14:07:52.381Z,2.10
2017-11-21T14:10:20.650Z,2.67
2017-11-21T14:12:48.139Z,2.50
2017-11-21T14:15:15.612Z,2.00
2017-11-21T14:17:43.952Z,2.10
2017-11-21T14:20:11.428Z,3.03
2017-11-21T14:22:39.765Z,2.23
2017-11-21T14:25:07.286Z,1.80
2017-11-21T14:27:34.782Z,2.40
2017-11-21T14:30:02.290Z,2.20
2017-11-21T14:32:30.541Z,2.73
2017-11-21T14:34:58.054Z,2.60
2017-11-21T14:37:25.607Z,1.90
2017-11-21T14:39:53.194Z,2.40
2017-11-21T14:42:20.734Z,2.50
2017-11-21T14:44:48.290Z,1.97
2017-11-21T14:47:15.774Z,2.43
2017-11-21T14:49:43.413Z,2.60
2017-11-21T14:52:11.693Z,3.10
2017-11-21T14:54:39.197Z,2.50
2017-11-21T14:57:06.801Z,3.40
2017-11-21T14:59:35.133Z,2.80
2017-11-21T15:02:02.646Z,3.40
2017-11-21T15:04:30.153Z,2.40
2017-11-21T15:06:58.563Z,2.97
2017-11-21T15:09:26.050Z,2.70
2017-11-21T15:11:53.574Z,2.73
2017-11-21T15:14:21.119Z,3.03
2017-11-21T15:16:48.675Z,2.53
2017-11-21T15:19:16.242Z,2.50
2017-11-21T15:21:43.747Z,3.10
2017-11-21T15:24:11.321Z,3.67
2017-11-21T15:26:38.808Z,2.50
2017-11-21T15:29:06.287Z,2.57
2017-11-21T15:31:33.782Z,2.50
2017-11-21T15:34:01.260Z,2.47
2017-11-21T15:36:28.933Z,3.50
2017-11-21T15:39:02.748Z,3.20
2017-11-21T15:41:30.338Z,2.50
2017-11-21T15:43:58.498Z,2.53
2017-11-21T15:46:25.988Z,3.50
2017-11-21T15:48:53.584Z,2.50
2017-11-21T15:51:21.115Z,2.60
2017-11-21T15:53:48.589Z,2.57
2017-11-21T15:56:16.126Z,2.23
2017-11-21T15:58:44.382Z,2.87
2017-11-21T16:01:11.924Z,2.30
2017-11-21T16:03:40.152Z,2.70
2017-11-21T16:06:07.678Z,2.43
2017-11-21T16:08:35.146Z,2.90
2017-11-21T16:11:02.769Z,2.30
2017-11-21T16:13:31.207Z,2.10
2017-11-21T16:15:58.700Z,2.83
2017-11-21T16:18:26.329Z,2.40
2017-11-21T16:20:53.831Z,3.70
2017-11-21T16:23:21.307Z,3.90
2017-11-21T16:25:48.797Z,3.00
2017-11-21T16:28:17.162Z,2.70
2017-11-21T16:30:44.675Z,2.30
2017-11-21T16:33:12.144Z,3.10
2017-11-21T16:35:39.693Z,2.60
2017-11-21T16:38:07.186Z,2.20
2017-11-21T16:40:34.688Z,2.60
2017-11-21T16:43:02.393Z,2.97
2017-11-21T16:45:29.973Z,2.73
2017-11-21T16:47:57.570Z,2.70
2017-11-21T16:50:25.087Z,2.47
2017-11-21T16:52:53.382Z,2.97
2017-11-21T16:55:21.000Z,3.90
2017-11-21T16:57:48.500Z,3.40
2017-11-21T17:00:16.006Z,3.00
2017-11-21T17:02:44.254Z,3.80
2017-11-21T17:05:12.546Z,3.80
2017-11-21T17:07:40.061Z,4.30
2017-11-21T17:10:07.561Z,3.50
2017-11-21T17:12:35.060Z,4.47
2017-11-21T17:15:02.628Z,3.80
2017-11-21T17:17:30.110Z,4.27
2017-11-21T17:19:57.810Z,3.77
2017-11-21T17:22:26.113Z,3.00
2017-11-21T17:24:53.657Z,3.43
2017-11-21T17:27:21.173Z,3.63
2017-11-21T17:29:49.448Z,3.80
2017-11-21T17:32:16.942Z,3.93
2017-11-21T17:34:44.535Z,3.90
2017-11-21T17:37:12.834Z,3.17
2017-11-21T17:39:40.324Z,4.10
2017-11-21T17:42:07.865Z,3.80
2017-11-21T17:44:35.751Z,4.03
2017-11-21T17:47:03.432Z,3.07
2017-11-21T17:49:31.709Z,3.50
2017-11-21T17:51:59.265Z,3.50
2017-11-21T17:54:26.751Z,3.10
2017-11-21T17:56:54.259Z,3.40
2017-11-21T17:59:21.765Z,2.63
2017-11-21T18:01:50.101Z,2.87
2017-11-21T18:04:17.593Z,4.20
2017-11-21T18:06:45.086Z,3.50
2017-11-21T18:09:12.598Z,3.90
2017-11-21T18:11:40.853Z,4.57
2017-11-21T18:14:08.363Z,4.27
2017-11-21T18:16:35.840Z,3.47
2017-11-21T18:19:03.338Z,3.57
2017-11-21T18:21:31.002Z,3.03
2017-11-21T18:23:58.473Z,3.87
2017-11-21T18:26:26.908Z,3.50
2017-11-21T18:28:54.428Z,4.60
2017-11-21T18:31:21.970Z,3.50
2017-11-21T18:33:50.280Z,3.43
2017-11-21T18:36:17.763Z,4.43
2017-11-21T18:38:45.436Z,3.77
2017-11-21T18:41:13.738Z,3.40
2017-11-21T18:43:41.991Z,4.10
2017-11-21T18:46:09.498Z,4.03
2017-11-21T18:48:37.732Z,3.13
2017-11-21T18:51:05.204Z,3.47
2017-11-21T18:53:32.702Z,3.90
2017-11-21T18:56:00.205Z,4.03
2017-11-21T18:58:27.705Z,4.40
2017-11-21T19:00:55.343Z,3.70
2017-11-21T19:03:22.842Z,3.50
2017-11-21T19:05:50.389Z,3.80
2017-11-21T19:08:17.869Z,4.57
2017-11-21T19:10:46.270Z,3.60
2017-11-21T19:13:13.772Z,4.40
2017-11-21T19:15:42.101Z,3.30
2017-11-21T19:18:10.411Z,4.63
2017-11-21T19:20:37.908Z,2.87
2017-11-21T19:23:06.153Z,3.00
2017-11-21T19:25:33.675Z,3.47
2017-11-21T19:28:01.255Z,3.60
2017-11-21T19:30:29.521Z,2.90
2017-11-21T19:32:57.122Z,3.13
2017-11-21T19:35:24.602Z,3.07
2017-11-21T19:37:52.099Z,3.10
2017-11-21T19:40:19.605Z,3.37
2017-11-21T19:42:47.091Z,3.57
2017-11-21T19:45:15.449Z,3.47
2017-11-21T19:47:43.009Z,6.20
2017-11-21T19:50:10.515Z,3.80
2017-11-21T19:52:38.010Z,3.10
2017-11-21T19:55:06.262Z,3.17
2017-11-21T19:57:33.825Z,3.97
2017-11-21T20:00:01.314Z,3.23
2017-11-21T20:02:28.891Z,2.80
2017-11-21T20:04:56.615Z,3.30
2017-11-21T20:07:24.197Z,4.10
2017-11-21T20:09:51.713Z,3.10
2017-11-21T20:12:19.201Z,3.03
2017-11-21T20:14:46.695Z,4.00
2017-11-21T20:17:14.230Z,3.93
2017-11-21T20:19:42.489Z,3.70
2017-11-21T20:22:10.726Z,4.10
2017-11-21T20:24:38.237Z,3.70
2017-11-21T20:27:05.948Z,2.70
2017-11-21T20:29:33.511Z,3.27
2017-11-21T20:32:00.996Z,3.53
2017-11-21T20:34:28.475Z,3.23
2017-11-21T20:36:55.988Z,3.87
2017-11-21T20:39:23.604Z,3.90
2017-11-21T20:41:51.090Z,3.60
2017-11-21T20:44:18.604Z,3.27
2017-11-21T20:46:46.174Z,3.67
2017-11-21T20:49:14.438Z,4.03
2017-11-21T20:51:41.936Z,4.50
2017-11-21T20:54:09.487Z,3.47
2017-11-21T20:56:37.140Z,3.60
2017-11-21T20:59:04.692Z,3.30
2017-11-21T21:01:32.930Z,3.70
2017-11-21T21:04:00.676Z,3.40
2017-11-21T21:06:28.148Z,3.30
2017-11-21T21:08:55.644Z,3.07
2017-11-21T21:11:23.127Z,3.57
2017-11-21T21:13:50.606Z,3.27
2017-11-21T21:16:18.112Z,2.90
2017-11-21T21:18:46.355Z,2.87
2017-11-21T21:21:13.902Z,2.63
2017-11-21T21:23:42.165Z,2.67
2017-11-21T21:26:09.739Z,3.13
2017-11-21T21:28:37.229Z,3.20
2017-11-21T21:31:05.022Z,2.67
2017-11-21T21:33:32.634Z,2.70
2017-11-21T21:38:39.204Z,3.47
2017-11-21T21:41:06.733Z,3.00
2017-11-21T21:43:34.217Z,3.10
2017-11-21T21:46:01.933Z,2.90
2017-11-21T21:48:29.441Z,2.67
2017-11-21T21:50:56.905Z,3.33
2017-11-21T21:53:25.168Z,4.50
2017-11-21T21:55:52.701Z,3.50
2017-11-21T21:58:20.205Z,2.90
2017-11-21T22:00:47.702Z,3.30
2017-11-21T22:03:15.204Z,2.90
2017-11-21T22:05:42.704Z,3.40
2017-11-21T22:08:10.213Z,3.20
2017-11-21T22:10:38.546Z,3.30
2017-11-21T22:13:06.810Z,3.63
2017-11-21T22:15:34.314Z,2.50
2017-11-21T22:18:01.800Z,2.90
2017-11-21T22:20:29.284Z,3.17
2017-11-21T22:22:56.940Z,2.80
2017-11-21T22:25:24.461Z,3.10
2017-11-21T22:27:51.928Z,2.77
2017-11-21T22:30:19.426Z,3.80
2017-11-21T22:32:46.910Z,2.10
2017-11-21T22:35:14.499Z,3.17
2017-11-21T22:37:41.969Z,2.90
2017-11-21T22:40:10.392Z,2.73
2017-11-21T22:42:37.898Z,2.67
2017-11-21T22:45:05.398Z,2.53
2017-11-21T22:47:33.691Z,3.03
2017-11-21T22:50:01.184Z,2.70
2017-11-21T22:52:28.724Z,3.77
2017-11-21T22:54:56.276Z,3.53
2017-11-21T22:57:23.783Z,2.90
2017-11-21T22:59:52.021Z,2.87
2017-11-21T23:02:19.617Z,3.47
2017-11-21T23:04:47.085Z,2.97
2017-11-21T23:07:14.580Z,3.73
2017-11-21T23:09:42.046Z,3.13
2017-11-21T23:12:10.303Z,2.70
2017-11-21T23:14:37.817Z,3.47
2017-11-21T23:17:06.081Z,2.97
2017-11-21T23:19:33.565Z,3.90
2017-11-21T23:22:01.045Z,2.80
2017-11-21T23:24:29.287Z,3.00
2017-11-21T23:26:56.779Z,2.57
2017-11-21T23:29:24.261Z,3.73
2017-11-21T23:31:51.762Z,3.37
2017-11-21T23:34:19.294Z,3.73
2017-11-21T23:36:46.798Z,2.77
2017-11-21T23:39:14.274Z,2.37
2017-11-21T23:41:42.539Z,3.23
2017-11-21T23:44:10.895Z,2.83
2017-11-21T23:46:39.141Z,3.00
2017-11-21T23:49:06.639Z,3.20
2017-11-21T23:51:34.134Z,2.80
2017-11-21T23:54:01.642Z,2.63
2017-11-21T23:56:29.117Z,3.50
2017-11-21T23:58:56.589Z,2.90
